Aérodrome :







RETROUVEZ-NOUS SUR...

 
LOGIN :

S'inscrire | Disclaimer

   EN    FR    IT 

 









Légende :    VFR   VFR Marginal   IFR   IFR Intensif   IFR Très Intensif
Visi : 
Plafond : 
>= 8 km
>= 3000ft
5 à 8 km
1000 à 3000 ft
1500m à 5 km
500 à 1000 ft
800 à 1500m
200 à 500 ft
< 800m
< 200 ft
Symboles :   Orages  Brouillard  Fortes neiges  Fortes précipitations  Vent > 20 kt






- Altitude de l'aérodrome : 76 ft
- Code IATA : PWM


KPWM - Portland International Jetport

DERNIER METAR :
  • 040051Z 03013G20KT 10SM OVC024 08/04 A2991 RMK AO2 SLP128 T00830039

METARs EXPIRÉS :
  • 032351Z 02011G20KT 10SM OVC022 08/05 A2988 RMK AO2 RAE16 SLP117 P0002 60005 T00830050 10083 20083 51027
  • 032251Z 02012KT 7SM -RA OVC017 08/06 A2985 RMK AO2 RAB27 SLP109 P0000 T00830056

TAF KPWM
Valide du 04 à 00h jusqu'au 05 à 00h UTC


032332Z 0400/0424 02012G22KT P6SM OVC015
TEMPO 0400/0402 -SHRA
FM041000 03010KT P6SM OVC020
FM042000 15007KT P6SM BKN035



MET'MAP, la Météo Aéronautique d'un coup d'oeil ! - Copyright ORBIFLY Décembre 2007 - Disclaimer

ORBIFLY MET'MAP TEAM :

Programmation & Développement : Alexandra Zaïnal
Sur une idée originale de : Baudouin d'Aumeries
Assistance à la programmation : Marc-Olivier Méhu
Soutien technique & logistique : Manuel Goepfert

Contact : metmap@orbifly.com




SOURCES & CREDITS :

   NOAA